createdAt,value
2019-04-26T00:00:13.872Z,10.43
2019-04-26T00:04:24.074Z,11.50
2019-04-26T00:08:33.003Z,11.57
2019-04-26T00:12:49.547Z,12.00
2019-04-26T00:17:23.009Z,11.50
2019-04-26T00:21:31.453Z,12.77
2019-04-26T00:25:39.989Z,13.43
2019-04-26T00:29:47.687Z,12.10
2019-04-26T00:33:55.352Z,12.17
2019-04-26T00:38:03.418Z,12.33
2019-04-26T00:42:12.175Z,14.23
2019-04-26T00:46:23.662Z,15.70
2019-04-26T00:50:33.287Z,16.67
2019-04-26T00:54:42.024Z,13.33
2019-04-26T00:58:50.251Z,15.33
2019-04-26T01:02:58.353Z,15.40
2019-04-26T01:07:06.181Z,16.93
2019-04-26T01:11:16.178Z,15.63
2019-04-26T01:15:26.635Z,16.10
2019-04-26T01:19:35.628Z,16.20
2019-04-26T01:23:46.639Z,18.07
2019-04-26T01:27:54.979Z,13.50
2019-04-26T01:32:08.276Z,14.80
2019-04-26T01:36:18.261Z,12.83
2019-04-26T01:40:28.360Z,13.53
2019-04-26T01:44:46.235Z,14.23
2019-04-26T01:49:06.567Z,11.70
2019-04-26T01:53:14.279Z,13.47
2019-04-26T01:57:25.381Z,14.57
2019-04-26T02:01:55.047Z,12.67
2019-04-26T02:06:03.778Z,11.97
2019-04-26T02:10:14.091Z,11.90
2019-04-26T02:14:22.664Z,12.63
2019-04-26T02:18:33.604Z,12.77
2019-04-26T02:23:13.691Z,12.57
2019-04-26T02:27:24.886Z,13.43
2019-04-26T02:31:37.234Z,13.53
2019-04-26T02:35:43.951Z,15.77
2019-04-26T02:39:52.794Z,17.67
2019-04-26T02:44:03.604Z,17.33
2019-04-26T02:48:35.797Z,14.97
2019-04-26T02:53:16.626Z,14.33
2019-04-26T02:57:36.650Z,16.10
2019-04-26T03:01:45.578Z,15.37
2019-04-26T03:05:55.304Z,16.40
2019-04-26T03:10:03.952Z,18.33
2019-04-26T03:14:34.481Z,17.63
2019-04-26T03:18:55.696Z,27.23
2019-04-26T03:23:41.335Z,18.90
2019-04-26T03:28:15.041Z,17.97
2019-04-26T03:32:54.162Z,18.23
2019-04-26T03:37:21.999Z,17.63
2019-04-26T03:42:06.991Z,18.87
2019-04-26T03:46:45.160Z,18.43
2019-04-26T03:51:05.264Z,16.73
2019-04-26T03:55:51.931Z,19.70
2019-04-26T04:00:28.637Z,28.83
2019-04-26T04:04:46.738Z,24.53
2019-04-26T04:09:03.238Z,35.27
2019-04-26T04:13:40.872Z,23.03
2019-04-26T04:17:59.970Z,17.13
2019-04-26T04:22:10.194Z,16.07
2019-04-26T04:26:23.525Z,15.17
2019-04-26T04:31:15.063Z,14.70
2019-04-26T04:35:25.837Z,13.53
2019-04-26T04:39:46.486Z,12.60
2019-04-26T04:44:11.859Z,13.50
2019-04-26T04:48:35.115Z,13.20
2019-04-26T04:53:30.916Z,13.63
2019-04-26T04:58:04.833Z,13.27
2019-04-26T05:02:27.480Z,13.57
2019-04-26T05:07:06.769Z,12.23
2019-04-26T05:11:20.895Z,11.77
2019-04-26T05:15:51.073Z,11.50
2019-04-26T05:20:15.719Z,11.57
2019-04-26T05:24:42.350Z,13.07
2019-04-26T05:29:19.548Z,11.13
2019-04-26T05:34:08.212Z,9.43
2019-04-26T05:38:51.205Z,11.83
2019-04-26T05:43:39.744Z,9.77
2019-04-26T05:48:11.982Z,10.50
2019-04-26T05:53:05.337Z,7.30
2019-04-26T05:57:56.787Z,8.37
2019-04-26T06:02:59.074Z,8.67
2019-04-26T06:07:32.395Z,8.70
2019-04-26T06:11:54.633Z,9.53
2019-04-26T06:16:21.796Z,9.00
2019-04-26T06:20:55.917Z,9.30
2019-04-26T06:25:32.669Z,9.57
2019-04-26T06:30:01.345Z,10.00
2019-04-26T06:34:20.538Z,11.00
2019-04-26T06:39:28.420Z,10.27
2019-04-26T06:43:44.909Z,10.90
2019-04-26T06:48:01.840Z,10.90
2019-04-26T06:52:13.794Z,10.17
2019-04-26T06:56:44.239Z,12.43
2019-04-26T07:01:16.299Z,9.90
2019-04-26T07:05:29.422Z,10.97
2019-04-26T07:09:59.095Z,10.50
2019-04-26T07:14:48.743Z,8.70
2019-04-26T07:19:19.800Z,7.10
2019-04-26T07:24:05.509Z,8.63
2019-04-26T07:28:49.165Z,8.07
2019-04-26T07:33:33.884Z,9.67
2019-04-26T07:38:11.204Z,7.30
2019-04-26T07:43:03.571Z,10.93
2019-04-26T07:48:19.634Z,7.67
2019-04-26T07:53:22.993Z,8.17
2019-04-26T07:58:26.628Z,7.50
2019-04-26T08:03:00.219Z,9.90
2019-04-26T08:07:13.562Z,6.90
2019-04-26T08:11:29.461Z,6.40
2019-04-26T08:16:08.841Z,5.87
2019-04-26T08:20:39.007Z,4.97
2019-04-26T08:24:49.425Z,4.40
2019-04-26T08:29:00.595Z,3.10
2019-04-26T08:33:14.704Z,3.90
2019-04-26T08:37:36.615Z,6.63
2019-04-26T08:41:44.793Z,4.67
2019-04-26T08:46:26.821Z,3.83
2019-04-26T08:50:42.181Z,3.67
2019-04-26T08:54:54.921Z,3.67
2019-04-26T08:59:10.058Z,5.63
2019-04-26T09:03:51.624Z,4.77
2019-04-26T09:08:03.990Z,4.40
2019-04-26T09:12:23.143Z,3.33
2019-04-26T09:16:28.968Z,3.60
2019-04-26T09:20:38.550Z,4.33
2019-04-26T09:25:02.916Z,4.23
2019-04-26T09:29:40.016Z,4.70
2019-04-26T09:33:51.135Z,3.57
2019-04-26T09:37:59.105Z,4.43
2019-04-26T09:42:14.265Z,4.10
2019-04-26T09:46:44.455Z,3.27
2019-04-26T09:50:53.919Z,3.53
2019-04-26T09:55:01.836Z,3.57
2019-04-26T09:59:09.826Z,3.20
2019-04-26T10:03:17.648Z,3.50
2019-04-26T10:07:26.021Z,3.33
2019-04-26T10:11:43.581Z,3.63
2019-04-26T10:16:11.765Z,3.80
2019-04-26T10:20:19.796Z,4.30
2019-04-26T10:24:27.629Z,3.53
2019-04-26T10:28:35.422Z,4.67
2019-04-26T10:32:43.454Z,3.93
2019-04-26T10:36:53.226Z,3.87
2019-04-26T10:41:01.125Z,4.60
2019-04-26T10:45:14.528Z,4.30
2019-04-26T10:49:40.995Z,4.13
2019-04-26T10:53:56.877Z,4.30
2019-04-26T10:58:15.015Z,4.37
2019-04-26T11:02:23.689Z,4.70
2019-04-26T11:06:31.574Z,5.10
2019-04-26T11:10:48.407Z,4.20
2019-04-26T11:14:49.251Z,5.67
2019-04-26T11:19:01.220Z,4.50
2019-04-26T11:23:08.118Z,5.17
2019-04-26T11:27:17.807Z,5.57
2019-04-26T11:31:27.582Z,5.47
2019-04-26T11:35:35.706Z,5.27
2019-04-26T11:39:43.400Z,3.80
2019-04-26T11:43:52.963Z,4.10
2019-04-26T11:48:03.283Z,4.27
2019-04-26T11:52:11.725Z,4.47
2019-04-26T11:56:20.095Z,3.53
2019-04-26T12:00:32.593Z,3.50
2019-04-26T12:04:59.962Z,3.90
2019-04-26T12:09:19.450Z,3.60
2019-04-26T12:13:27.321Z,3.40
2019-04-26T12:17:36.841Z,3.23
2019-04-26T12:21:44.902Z,2.87
2019-04-26T12:25:54.447Z,2.87
2019-04-26T12:30:02.170Z,2.57
2019-04-26T12:34:14.081Z,3.07
2019-04-26T12:38:20.230Z,3.57
2019-04-26T12:42:28.246Z,3.70
2019-04-26T12:46:44.988Z,3.27
2019-04-26T12:50:52.806Z,3.43
2019-04-26T12:55:00.601Z,4.13
2019-04-26T12:59:08.292Z,3.10
2019-04-26T13:03:20.382Z,3.27
2019-04-26T13:07:26.360Z,3.40
2019-04-26T13:11:52.837Z,3.80
2019-04-26T13:16:09.629Z,4.00
2019-04-26T13:20:17.481Z,2.90
2019-04-26T13:24:25.163Z,3.43
2019-04-26T13:28:32.973Z,3.83
2019-04-26T13:32:40.570Z,2.73
2019-04-26T13:36:52.757Z,3.77
2019-04-26T13:41:04.805Z,3.13
2019-04-26T13:45:27.173Z,3.20
2019-04-26T13:49:42.444Z,2.93
2019-04-26T13:53:50.141Z,2.63
2019-04-26T13:57:57.962Z,2.70
2019-04-26T14:02:11.663Z,2.80
2019-04-26T14:06:15.620Z,2.60
2019-04-26T14:10:23.464Z,3.53
2019-04-26T14:14:34.143Z,2.53
2019-04-26T14:18:42.126Z,3.07
2019-04-26T14:22:59.202Z,3.27
2019-04-26T14:27:25.877Z,3.30
2019-04-26T14:31:35.422Z,2.90
2019-04-26T14:35:46.228Z,2.97
2019-04-26T14:39:55.350Z,5.43
2019-04-26T14:44:14.804Z,3.20
2019-04-26T14:48:20.563Z,2.43
2019-04-26T14:52:24.086Z,3.90
2019-04-26T14:56:33.167Z,3.23
2019-04-26T15:00:43.867Z,4.13
2019-04-26T15:04:58.163Z,3.40
2019-04-26T15:09:16.969Z,2.97
2019-04-26T15:13:20.796Z,24.20
2019-04-26T15:17:26.767Z,9.13
2019-04-26T15:21:34.595Z,8.70
2019-04-26T15:25:48.303Z,5.50
2019-04-26T15:29:52.740Z,4.97
2019-04-26T15:34:00.461Z,4.03
2019-04-26T15:38:08.706Z,2.90
2019-04-26T15:42:30.727Z,4.43
2019-04-26T15:47:03.253Z,6.43
2019-04-26T15:51:10.430Z,7.60
2019-04-26T15:55:18.196Z,4.43
2019-04-26T15:59:26.226Z,4.30
2019-04-26T16:03:36.800Z,6.63
2019-04-26T16:07:43.473Z,6.00
2019-04-26T16:11:55.296Z,3.73
2019-04-26T16:16:03.817Z,3.50
2019-04-26T16:20:13.631Z,4.37
2019-04-26T16:24:24.184Z,7.03
2019-04-26T16:28:38.271Z,4.57
2019-04-26T16:33:08.628Z,4.20
2019-04-26T16:37:21.708Z,5.00
2019-04-26T16:41:27.139Z,5.00
2019-04-26T16:45:37.228Z,4.93
2019-04-26T16:49:46.666Z,6.50
2019-04-26T16:54:06.802Z,5.20
2019-04-26T16:58:04.624Z,5.40
2019-04-26T17:02:13.338Z,6.57
2019-04-26T17:06:23.268Z,6.70
2019-04-26T17:10:32.746Z,4.90
2019-04-26T17:14:45.355Z,5.37
2019-04-26T17:18:50.326Z,5.17
2019-04-26T17:23:30.132Z,6.10
2019-04-26T17:27:35.105Z,5.17
2019-04-26T17:31:43.350Z,6.33
2019-04-26T17:35:51.680Z,7.47
2019-04-26T17:40:00.860Z,7.77
2019-04-26T17:44:11.210Z,7.47
2019-04-26T17:48:18.835Z,10.63
2019-04-26T17:52:31.226Z,8.73
2019-04-26T17:56:39.580Z,9.73
2019-04-26T18:00:47.539Z,7.50
2019-04-26T18:05:00.618Z,9.10
2019-04-26T18:09:05.505Z,7.93
2019-04-26T18:13:16.378Z,7.97
2019-04-26T18:17:41.758Z,8.40
2019-04-26T18:22:07.508Z,6.30
2019-04-26T18:26:17.360Z,7.20
2019-04-26T18:30:26.727Z,8.03
2019-04-26T18:34:40.101Z,9.97
2019-04-26T18:38:48.473Z,7.70
2019-04-26T18:42:55.124Z,8.07
2019-04-26T18:47:14.657Z,7.33
2019-04-26T18:51:23.628Z,6.83
2019-04-26T18:55:34.391Z,7.67
2019-04-26T18:59:44.762Z,10.50
2019-04-26T19:03:53.936Z,6.83
2019-04-26T19:08:02.622Z,5.87
2019-04-26T19:12:11.947Z,5.77
2019-04-26T19:16:41.791Z,8.60
2019-04-26T19:21:03.737Z,8.20
2019-04-26T19:25:20.907Z,6.50
2019-04-26T19:29:29.294Z,7.67
2019-04-26T19:33:31.483Z,7.20
2019-04-26T19:37:39.703Z,6.53
2019-04-26T19:41:47.415Z,9.23
2019-04-26T19:46:25.219Z,11.07
2019-04-26T19:50:55.551Z,7.37
2019-04-26T19:55:13.232Z,6.33
2019-04-26T19:59:23.308Z,4.93
2019-04-26T20:03:32.064Z,8.13
2019-04-26T20:07:41.602Z,7.30
2019-04-26T20:11:51.409Z,8.30
2019-04-26T20:16:02.669Z,4.50
2019-04-26T20:20:18.893Z,5.23
2019-04-26T20:24:19.560Z,5.07
2019-04-26T20:28:29.744Z,5.50
2019-04-26T20:32:38.639Z,5.57
2019-04-26T20:36:47.774Z,5.23
2019-04-26T20:40:55.696Z,6.10
2019-04-26T20:45:04.461Z,6.23
2019-04-26T20:49:12.953Z,6.57
2019-04-26T20:53:21.716Z,6.40
2019-04-26T20:57:31.343Z,7.43
2019-04-26T21:01:43.560Z,7.33
2019-04-26T21:05:52.826Z,7.63
2019-04-26T21:09:59.781Z,7.33
2019-04-26T21:14:08.734Z,7.37
2019-04-26T21:18:16.835Z,7.20
2019-04-26T21:22:28.397Z,7.23
2019-04-26T21:26:56.090Z,7.70
2019-04-26T21:31:28.766Z,7.40
2019-04-26T21:36:11.191Z,8.70
2019-04-26T21:40:43.847Z,7.77
2019-04-26T21:44:54.820Z,8.03
2019-04-26T21:49:03.624Z,7.03
2019-04-26T21:53:13.240Z,7.33
2019-04-26T21:57:25.131Z,6.67
2019-04-26T22:01:33.086Z,6.90
2019-04-26T22:05:43.930Z,6.50
2019-04-26T22:10:25.997Z,7.50
2019-04-26T22:14:35.740Z,7.07
2019-04-26T22:19:01.137Z,7.80
2019-04-26T22:23:33.100Z,7.07
2019-04-26T22:27:43.679Z,7.37
2019-04-26T22:31:54.609Z,8.13
2019-04-26T22:36:01.496Z,7.63
2019-04-26T22:40:10.527Z,7.73
2019-04-26T22:44:31.317Z,7.57
2019-04-26T22:48:39.067Z,8.53
2019-04-26T22:52:51.591Z,7.30
2019-04-26T22:56:56.664Z,7.40
2019-04-26T23:01:06.216Z,7.10
2019-04-26T23:05:15.117Z,6.90
2019-04-26T23:09:23.814Z,7.13
2019-04-26T23:13:51.024Z,6.37
2019-04-26T23:18:16.555Z,7.13
2019-04-26T23:22:30.795Z,7.87
2019-04-26T23:26:37.441Z,7.70
2019-04-26T23:30:44.598Z,7.43
2019-04-26T23:34:53.520Z,7.03
2019-04-26T23:39:03.264Z,7.90
2019-04-26T23:43:13.063Z,6.20
2019-04-26T23:47:23.180Z,6.43
2019-04-26T23:51:30.476Z,6.10
2019-04-26T23:55:42.499Z,5.47
2019-04-26T23:59:51.038Z,5.10
